Portada
METAR-TAF:

METAR-TAF

Aeropuertos :

Aeropuerto Internacional de Christchurch

Christchurch, Nueva Zelanda

latitud: 43-29S, longitud: 172-33E, altitud: 38 m

Observación

El informe se hizo hace 21 minutos, a las 19:30 UTC
Viento 1 kt del noroeste
Temperatura -3°C
Humedad 93%
Presión 1019 hPa
Visibilidad 10 km o más

METAR: NZCH 211930Z AUTO 31001KT 9999 NCD M03/M04 Q1019 NOSIG

Hora: 07:51 (19:51 UTC)

Pronóstico

El informe se hizo hace 2 horas y 50 minutos, a las 17:01 UTC
Pronóstico válido del 21 a las 18 UTC al 22 a las 18 UTC
Viento 2 kt con dirección variable
Visibilidad 10 km o más
sin nubes por debajo de 1500 m y sin presencia de cumulonimbus.

TAF: NZCH 211701Z 2118/2218 VRB02KT CAVOK

Observaciones y pronósticos meteorológicos de más de 4000 aeropuertos (mensajes METAR y TAF).

Los puntos amarillos y rojos representan las estaciones disponibles.

Ponga el ratón en el punto deseado para ver el nombre de la estación.

Haga clic para ver las observaciones y los pronósticos meteorológicos.

Para cambiar el mapa : haga clic en los botones verdes con una cruz de color negro para hacer un zoom, en el botón verde con un guión para alejar o en las flechas verdes para mapas adyacentes.


METAR-TAF: